Time;durP1;ratioP1;P1;durP2;ratioP2;P2;SDS_P1;SDS_P2;PMS_P1;PMS_P2;Temp;Humidity;BMP_temperature;BMP_pressure;BME280_temperature;BME280_humidity;BME280_pressure;Samples;Min_cycle;Max_cycle;Signal;HPM_P1;HPM_P2
2022/08/02 00:01:20;;;;;;;12.78;11.65;;;;;;;19.11;72.38;100187.09;1723555;82;25494;-67
2022/08/02 00:03:46;;;;;;;14.75;12.45;;;;;;;19.07;72.58;100187.64;1723390;82;25305;-67
2022/08/02 00:06:12;;;;;;;13.00;11.80;;;;;;;19.03;72.70;100190.33;1723335;82;27499;-67
2022/08/02 00:08:38;;;;;;;13.15;11.78;;;;;;;18.99;72.73;100188.09;1723322;82;25266;-67
2022/08/02 00:11:05;;;;;;;18.10;12.43;;;;;;;18.96;72.89;100181.98;1723373;82;25450;-66
2022/08/02 00:13:31;;;;;;;14.00;11.80;;;;;;;18.93;73.02;100185.45;1723475;82;25511;-66
2022/08/02 00:15:58;;;;;;;14.00;11.83;;;;;;;18.91;73.10;100191.10;1722124;82;25332;-67
2022/08/02 00:18:24;;;;;;;13.43;12.13;;;;;;;18.88;73.29;100189.87;1718171;83;27590;-67
2022/08/02 00:20:50;;;;;;;17.60;11.88;;;;;;;18.87;73.71;100187.53;1691053;83;25317;-67
2022/08/02 00:23:16;;;;;;;14.68;11.78;;;;;;;18.83;73.84;100188.81;1685855;83;25565;-68
2022/08/02 00:25:45;;;;;;;13.58;11.90;;;;;;;18.80;73.72;100185.44;1728228;81;25675;-68
2022/08/02 00:28:11;;;;;;;13.62;11.73;;;;;;;18.79;73.87;100189.32;1685429;84;25769;-68
2022/08/02 00:30:38;;;;;;;14.30;12.73;;;;;;;18.76;74.01;100185.94;1688463;83;27484;-68
2022/08/02 00:33:05;;;;;;;13.15;11.83;;;;;;;18.75;74.38;100198.08;1687847;84;25703;-68
2022/08/02 00:35:31;;;;;;;15.75;12.23;;;;;;;18.72;74.52;100190.58;1687866;84;25505;-69
2022/08/02 00:37:58;;;;;;;13.75;12.40;;;;;;;18.67;74.42;100185.61;1686748;84;25751;-68
2022/08/02 00:40:24;;;;;;;13.18;11.93;;;;;;;18.66;74.41;100190.08;1685498;85;25645;-68
2022/08/02 00:43:09;;;;;;;14.00;11.95;;;;;;;18.66;74.73;100197.73;1689838;84;27416;-68
2022/08/02 00:45:38;;;;;;;13.98;12.60;;;;;;;18.66;74.90;100201.03;1679553;85;25237;-68
2022/08/02 00:48:07;;;;;;;14.00;12.60;;;;;;;18.66;75.21;100204.59;1686621;83;25710;-69
2022/08/02 00:50:35;;;;;;;14.98;12.45;;;;;;;18.65;75.36;100206.32;1688082;84;25695;-69
2022/08/02 00:53:01;;;;;;;13.25;11.83;;;;;;;18.64;75.55;100204.73;1688544;84;25683;-69
2022/08/02 00:55:29;;;;;;;14.38;12.30;;;;;;;18.61;75.57;100205.45;1688006;84;27556;-69
2022/08/02 00:57:55;;;;;;;12.82;11.63;;;;;;;18.59;75.62;100199.55;1688407;84;25476;-68
2022/08/02 01:00:22;;;;;;;14.55;12.80;;;;;;;18.58;75.96;100204.25;1766069;80;25721;-68
2022/08/02 01:02:48;;;;;;;13.00;11.88;;;;;;;18.56;75.80;100198.35;1749101;81;25542;-69
2022/08/02 01:05:16;;;;;;;14.18;12.75;;;;;;;18.53;75.68;100203.19;1760471;81;25685;-68
2022/08/02 01:07:43;;;;;;;15.25;12.30;;;;;;;18.52;75.86;100204.33;1738217;81;27576;-70
2022/08/02 01:10:10;;;;;;;13.15;11.85;;;;;;;18.51;76.09;100201.95;1742433;80;25608;-69
2022/08/02 01:12:36;;;;;;;14.25;13.00;;;;;;;18.46;76.24;100205.80;1754947;81;25634;-69
2022/08/02 01:15:11;;;;;;;13.88;12.58;;;;;;;18.41;76.41;100200.05;1740085;81;25559;-69
2022/08/02 01:18:10;;;;;;;14.68;13.18;;;;;;;18.37;76.56;100199.76;1741286;79;25406;-68
2022/08/02 01:21:28;;;;;;;17.00;13.08;;;;;;;18.33;76.78;100202.44;1741046;79;27476;-68
2022/08/02 01:24:40;;;;;;;14.90;13.38;;;;;;;18.32;77.08;100206.91;1683559;82;25504;-68
2022/08/02 01:27:23;;;;;;;14.33;12.82;;;;;;;18.27;77.45;100210.16;1680045;84;25454;-68
2022/08/02 01:29:53;;;;;;;15.53;13.78;;;;;;;18.25;77.61;100213.03;1681597;84;25518;-68
2022/08/02 01:32:24;;;;;;;13.95;12.65;;;;;;;18.24;77.60;100208.15;1681919;83;25264;-68
2022/08/02 01:34:59;;;;;;;13.48;12.07;;;;;;;18.25;77.65;100209.74;1680256;84;27478;-68
2022/08/02 01:37:49;;;;;;;16.93;12.33;;;;;;;18.25;77.69;100213.84;1681328;84;25335;-68
2022/08/02 01:40:28;;;;;;;13.72;12.13;;;;;;;18.25;77.65;100216.59;1679441;85;25193;-68
2022/08/02 01:42:57;;;;;;;;;;;;;;;18.24;77.63;100214.98;1685147;81;25759;-70
2022/08/02 01:45:33;;;;;;;13.62;12.20;;;;;;;18.24;77.64;100222.42;1685051;81;31035;-70
2022/08/02 01:48:00;;;;;;;13.53;11.38;;;;;;;18.20;77.40;100219.63;1683576;81;27433;-69
2022/08/02 01:58:47;;;;;;;14.13;12.73;;;;;;;18.06;77.88;100225.59;1682196;82;25260;-67
2022/08/02 02:01:15;;;;;;;14.28;12.78;;;;;;;18.01;78.05;100219.63;1719308;82;25383;-69
2022/08/02 02:03:43;;;;;;;16.73;12.45;;;;;;;17.99;78.03;100220.56;1753583;81;28153;-68
2022/08/02 02:06:11;;;;;;;14.25;12.70;;;;;;;17.99;78.20;100223.30;1738048;81;25445;-68
2022/08/02 02:08:40;;;;;;;14.30;12.80;;;;;;;17.98;78.42;100219.78;1741343;81;25658;-68
2022/08/02 02:11:07;;;;;;;;;;;;;;;17.98;78.76;100221.15;1735228;81;27698;-68
2022/08/02 02:13:36;;;;;;;12.82;11.70;;;;;;;17.96;78.97;100220.70;1754732;81;25396;-68
2022/08/02 02:16:05;;;;;;;14.53;13.05;;;;;;;17.91;78.68;100221.80;1758325;81;28130;-70
2022/08/02 02:18:39;;;;;;;14.07;12.55;;;;;;;17.88;78.70;100217.05;1758159;81;25637;-69
2022/08/02 02:21:06;;;;;;;14.03;12.70;;;;;;;17.86;78.83;100215.25;1746888;81;25512;-69
2022/08/02 02:23:33;;;;;;;13.70;12.50;;;;;;;17.82;79.09;100216.29;1751397;81;25675;-69
2022/08/02 02:26:02;;;;;;;14.45;11.73;;;;;;;17.81;78.97;100217.43;1734883;81;25646;-69
2022/08/02 02:28:32;;;;;;;13.72;12.37;;;;;;;17.80;79.06;100223.48;1737852;81;27730;-70
2022/08/02 02:31:12;;;;;;;13.25;12.00;;;;;;;17.79;79.18;100223.84;1737277;81;25648;-70
2022/08/02 02:33:52;;;;;;;16.85;12.10;;;;;;;17.78;79.23;100221.69;1737123;81;25421;-70
2022/08/02 02:36:21;;;;;;;13.60;12.28;;;;;;;17.77;79.37;100222.83;1737409;81;26346;-68
2022/08/02 02:38:49;;;;;;;18.45;12.33;;;;;;;17.74;79.14;100224.36;1730598;81;25581;-70
2022/08/02 02:41:18;;;;;;;13.20;11.87;;;;;;;17.73;79.37;100228.23;1746970;81;28264;-70
2022/08/02 02:43:46;;;;;;;13.83;12.53;;;;;;;17.70;79.74;100221.32;1753887;80;25686;-70
2022/08/02 02:46:14;;;;;;;15.55;13.30;;;;;;;17.66;79.72;100222.62;1738196;82;25714;-70
2022/08/02 02:48:42;;;;;;;14.20;12.78;;;;;;;17.62;79.78;100226.42;1728710;81;25597;-70
2022/08/02 02:51:10;;;;;;;14.78;13.08;;;;;;;17.60;79.98;100230.09;1746315;81;25635;-71
2022/08/02 02:53:42;;;;;;;13.98;11.88;;;;;;;17.59;80.24;100235.33;1737514;82;25898;-70
2022/08/02 02:56:08;;;;;;;13.60;12.13;;;;;;;17.58;80.12;100235.91;1737866;82;25556;-70
2022/08/02 02:58:37;;;;;;;14.35;12.85;;;;;;;17.59;80.44;100236.14;1737957;81;25613;-70
2022/08/02 03:03:49;;;;;;;15.78;13.30;;;;;;;17.55;80.80;100240.73;1758896;80;25394;-70
2022/08/02 03:06:15;;;;;;;18.25;13.62;;;;;;;17.54;80.91;100244.05;1735532;81;27498;-70
2022/08/02 03:08:42;;;;;;;14.95;13.45;;;;;;;17.54;81.16;100244.05;1737560;82;27416;-70
2022/08/02 03:11:11;;;;;;;14.20;12.63;;;;;;;17.51;81.18;100237.92;1738167;82;25524;-71
2022/08/02 03:13:39;;;;;;;15.90;13.68;;;;;;;17.49;81.09;100240.81;1738082;81;25948;-70
2022/08/02 03:16:06;;;;;;;21.82;14.38;;;;;;;17.46;81.24;100246.98;1737203;81;25475;-71
2022/08/02 03:18:36;;;;;;;16.20;13.60;;;;;;;17.43;81.45;100252.58;1737577;82;27468;-71
2022/08/02 03:21:13;;;;;;;15.45;13.95;;;;;;;17.41;81.31;100248.62;1737238;81;25831;-71
2022/08/02 03:23:40;;;;;;;16.00;14.50;;;;;;;17.39;81.59;100245.46;1760549;81;25596;-71
2022/08/02 03:26:08;;;;;;;15.48;13.93;;;;;;;17.38;81.72;100246.02;1756075;80;25539;-71
2022/08/02 03:28:38;;;;;;;14.98;12.80;;;;;;;17.35;81.76;100238.55;1740664;80;25647;-71
2022/08/02 03:31:05;;;;;;;14.85;13.28;;;;;;;17.34;81.89;100239.69;1757297;81;27542;-69
2022/08/02 03:33:33;;;;;;;14.15;12.75;;;;;;;17.32;81.83;100237.89;1735837;81;25618;-70
2022/08/02 03:36:04;;;;;;;14.58;12.88;;;;;;;17.32;82.10;100238.67;1743017;81;25402;-70
2022/08/02 03:38:32;;;;;;;13.90;12.50;;;;;;;17.32;82.12;100243.36;1745966;81;26150;-70
2022/08/02 03:41:02;;;;;;;14.28;12.78;;;;;;;17.31;82.19;100242.55;1750752;81;25381;-70
2022/08/02 03:43:29;;;;;;;14.00;12.60;;;;;;;17.33;82.19;100236.72;1749241;81;27618;-70
2022/08/02 03:45:58;;;;;;;13.93;12.45;;;;;;;17.34;82.42;100243.20;1738119;81;25639;-70
2022/08/02 03:48:26;;;;;;;14.47;12.82;;;;;;;17.35;82.37;100249.48;1760747;81;25386;-71
2022/08/02 03:50:54;;;;;;;15.93;13.90;;;;;;;17.35;82.44;100244.02;1768093;80;25548;-71
2022/08/02 03:53:22;;;;;;;16.05;12.82;;;;;;;17.36;82.64;100247.73;1761665;80;25550;-71
2022/08/02 03:55:49;;;;;;;15.20;13.70;;;;;;;17.37;82.68;100249.91;1738431;81;27456;-71
2022/08/02 03:58:21;;;;;;;14.63;11.85;;;;;;;17.36;82.60;100251.83;1735096;81;25465;-71
2022/08/02 04:00:49;;;;;;;14.30;12.95;;;;;;;17.38;82.70;100253.44;1752326;81;25401;-71
2022/08/02 04:03:15;;;;;;;16.23;13.38;;;;;;;17.40;82.83;100253.31;1734534;80;25588;-71
2022/08/02 04:05:41;;;;;;;16.02;14.47;;;;;;;17.43;82.91;100259.41;1756587;81;25398;-71
2022/08/02 04:08:07;;;;;;;16.52;14.85;;;;;;;17.43;82.82;100262.14;1738776;81;27523;-71
2022/08/02 04:13:21;;;;;;;17.62;13.85;;;;;;;17.50;83.06;100266.98;1743025;81;25375;-71
2022/08/02 04:15:51;;;;;;;15.45;13.48;;;;;;;17.52;83.07;100267.41;1734503;82;26205;-71
2022/08/02 04:18:21;;;;;;;17.73;14.25;;;;;;;17.57;83.00;100266.35;1734605;82;25615;-68
2022/08/02 04:20:49;;;;;;;14.70;12.98;;;;;;;17.61;83.06;100272.71;1736516;81;27469;-68
2022/08/02 04:23:17;;;;;;;14.20;12.80;;;;;;;17.62;82.98;100275.09;1737231;81;25683;-70
2022/08/02 04:25:45;;;;;;;20.90;12.80;;;;;;;17.67;83.08;100280.28;1757639;81;25426;-69
2022/08/02 04:28:14;;;;;;;17.05;12.73;;;;;;;17.70;83.16;100274.07;1752321;81;25617;-69
2022/08/02 04:30:41;;;;;;;14.05;12.65;;;;;;;17.75;83.36;100278.48;1762761;80;25543;-69
2022/08/02 04:33:08;;;;;;;14.23;12.93;;;;;;;17.81;83.29;100288.00;1738086;81;27614;-69
2022/08/02 04:35:35;;;;;;;13.80;12.37;;;;;;;17.87;83.20;100295.38;1759148;81;25397;-69
2022/08/02 04:38:01;;;;;;;14.15;11.95;;;;;;;17.92;83.32;100297.24;1736840;81;26187;-68
2022/08/02 04:40:28;;;;;;;13.50;12.15;;;;;;;17.98;83.09;100296.41;1737092;82;25615;-71
2022/08/02 04:42:54;;;;;;;14.95;11.53;;;;;;;18.04;83.05;100298.27;1759324;81;25622;-72
2022/08/02 04:45:21;;;;;;;13.18;11.88;;;;;;;18.09;82.72;100304.83;1737889;81;27574;-72
2022/08/02 04:47:48;;;;;;;14.07;11.75;;;;;;;18.16;82.29;100308.29;1737908;81;25561;-73
2022/08/02 04:50:14;;;;;;;13.93;11.75;;;;;;;18.21;82.08;100309.37;1735079;81;25590;-66
2022/08/02 04:52:40;;;;;;;13.10;11.45;;;;;;;18.28;82.29;100313.61;1754820;81;25502;-70
2022/08/02 04:55:07;;;;;;;11.28;10.13;;;;;;;18.35;82.01;100311.59;1760889;80;25733;-70
2022/08/02 05:00:18;;;;;;;12.13;10.93;;;;;;;18.48;81.48;100317.92;1738663;81;26026;-71
2022/08/02 05:02:44;;;;;;;12.33;10.28;;;;;;;18.56;81.45;100319.42;1768722;80;25562;-72
2022/08/02 05:05:10;;;;;;;11.57;10.43;;;;;;;18.64;81.51;100323.33;1746528;81;25469;-73
2022/08/02 05:07:38;;;;;;;10.60;9.60;;;;;;;18.73;81.48;100327.77;1747415;81;25606;-72
2022/08/02 05:10:05;;;;;;;11.20;10.03;;;;;;;18.80;81.04;100325.17;1732617;82;27487;-72
2022/08/02 05:12:31;;;;;;;10.88;9.78;;;;;;;18.85;80.60;100325.69;1743338;81;25551;-71
2022/08/02 05:14:57;;;;;;;9.80;8.63;;;;;;;18.91;80.11;100327.53;1741857;81;25398;-71
2022/08/02 05:17:23;;;;;;;10.08;9.10;;;;;;;18.97;80.14;100330.20;1719631;82;25622;-71
2022/08/02 05:19:50;;;;;;;13.40;9.00;;;;;;;19.03;79.87;100332.05;1729368;82;25663;-71
2022/08/02 05:22:16;;;;;;;8.83;8.00;;;;;;;19.09;79.51;100331.97;1746289;81;28411;-70
2022/08/02 05:24:42;;;;;;;10.98;7.08;;;;;;;19.14;78.76;100333.62;1753147;80;25263;-69
2022/08/02 05:27:08;;;;;;;8.68;7.58;;;;;;;19.20;78.11;100334.88;1735469;81;25243;-69
2022/08/02 05:29:34;;;;;;;9.30;8.38;;;;;;;19.30;78.18;100344.45;1732016;81;25444;-70
2022/08/02 05:32:00;;;;;;;10.10;8.25;;;;;;;19.38;77.36;100347.52;1739379;81;25725;-70
2022/08/02 05:34:26;;;;;;;7.47;6.40;;;;;;;19.47;77.19;100348.64;1728915;81;27454;-69
2022/08/02 05:36:52;;;;;;;8.50;6.62;;;;;;;19.58;76.84;100352.32;1734088;81;25577;-69
2022/08/02 05:39:20;;;;;;;6.90;6.30;;;;;;;19.71;76.39;100357.03;1750245;81;25603;-70
2022/08/02 05:41:50;;;;;;;8.65;6.33;;;;;;;19.85;76.43;100360.00;1737571;81;25481;-72
2022/08/02 05:44:16;;;;;;;7.62;5.67;;;;;;;20.02;75.92;100362.00;1733739;81;25706;-70
2022/08/02 05:46:42;;;;;;;8.60;6.80;;;;;;;20.18;74.89;100363.22;1733133;81;27515;-70
2022/08/02 05:49:08;;;;;;;9.95;6.87;;;;;;;20.34;74.78;100369.28;1739958;81;25694;-70
2022/08/02 05:51:52;;;;;;;5.25;4.72;;;;;;;20.53;74.53;100371.08;1738335;81;25571;-70
2022/08/02 05:54:49;;;;;;;5.40;4.72;;;;;;;20.71;73.02;100374.07;1688269;84;25856;-69
2022/08/02 05:57:56;;;;;;;6.17;4.65;;;;;;;20.88;72.42;100377.58;1684354;84;25483;-69
2022/08/02 06:00:21;;;;;;;4.12;3.77;;;;;;;21.09;71.29;100373.46;1688595;84;28422;-69
2022/08/02 06:02:59;;;;;;;6.45;4.00;;;;;;;21.32;70.52;100369.72;1695114;84;26483;-70
2022/08/02 06:05:30;;;;;;;4.92;4.45;;;;;;;21.49;69.68;100378.76;1688098;84;25710;-69
2022/08/02 06:07:59;;;;;;;6.17;3.70;;;;;;;21.68;69.35;100376.34;1691817;84;25785;-70
2022/08/02 06:10:28;;;;;;;5.30;3.75;;;;;;;21.85;68.31;100376.84;1687290;84;25658;-70
2022/08/02 06:13:11;;;;;;;4.58;3.65;;;;;;;21.99;66.98;100370.03;1688462;84;27541;-70
2022/08/02 06:15:39;;;;;;;4.65;3.10;;;;;;;22.14;66.64;100372.28;1688687;84;25651;-70
2022/08/02 06:18:07;;;;;;;3.40;3.10;;;;;;;22.34;66.46;100379.70;1697078;84;25755;-69
2022/08/02 06:20:36;;;;;;;4.45;2.83;;;;;;;22.49;64.18;100383.27;1692813;84;26442;-70
2022/08/02 06:23:06;;;;;;;2.98;2.37;;;;;;;22.61;62.64;100382.95;1702420;84;25647;-69
2022/08/02 06:25:36;;;;;;;3.45;2.40;;;;;;;22.71;63.03;100375.30;1702353;84;28538;-70
2022/08/02 06:28:05;;;;;;;4.78;2.62;;;;;;;22.88;62.73;100382.60;1709412;83;25636;-70
2022/08/02 06:30:32;;;;;;;4.75;3.05;;;;;;;23.09;62.45;100378.55;1713397;82;25768;-70
2022/08/02 06:33:00;;;;;;;3.25;2.20;;;;;;;23.30;61.46;100381.89;1732002;82;25634;-70
2022/08/02 06:35:34;;;;;;;6.95;4.95;;;;;;;23.47;60.12;100382.30;1699626;82;25694;-69
2022/08/02 06:38:01;;;;;;;3.90;2.15;;;;;;;23.61;60.21;100382.87;1715866;82;27419;-69
2022/08/02 06:40:57;;;;;;;2.35;1.87;;;;;;;23.80;59.23;100381.66;1727499;83;25688;-69
2022/08/02 06:43:37;;;;;;;1.70;1.60;;;;;;;23.95;56.54;100387.38;1729090;82;25604;-69
2022/08/02 06:46:04;;;;;;;3.60;2.20;;;;;;;24.14;56.06;100386.14;1731152;82;26395;-69
2022/08/02 06:48:34;;;;;;;2.33;1.62;;;;;;;24.33;56.17;100391.83;1717357;82;25776;-69
2022/08/02 06:50:59;;;;;;;2.90;1.98;;;;;;;24.54;55.26;100392.34;1680153;84;27474;-70
2022/08/02 06:53:25;;;;;;;4.03;1.67;;;;;;;24.74;55.78;100389.87;1710664;82;25676;-70
2022/08/02 06:55:51;;;;;;;2.20;2.00;;;;;;;25.02;54.68;100391.49;1720223;82;25577;-70
2022/08/02 06:58:17;;;;;;;3.90;2.00;;;;;;;25.23;53.88;100394.09;1728592;82;25638;-70
2022/08/02 07:00:43;;;;;;;2.05;1.75;;;;;;;25.49;52.95;100396.11;1720398;82;25593;-70
2022/08/02 07:03:10;;;;;;;2.77;2.15;;;;;;;25.69;52.74;100398.50;1712062;82;27597;-70
2022/08/02 07:05:37;;;;;;;2.90;2.30;;;;;;;25.99;52.32;100405.34;1729794;82;26164;-70
2022/08/02 07:08:04;;;;;;;2.55;2.10;;;;;;;26.32;52.10;100402.20;1711021;82;25703;-70
2022/08/02 07:10:30;;;;;;;3.72;2.33;;;;;;;26.65;50.66;100397.86;1701205;82;26282;-71
2022/08/02 07:12:57;;;;;;;4.58;1.98;;;;;;;26.90;50.24;100409.20;1719172;82;25830;-70
2022/08/02 07:15:23;;;;;;;1.70;1.60;;;;;;;27.17;49.44;100396.09;1732111;82;27471;-70
2022/08/02 07:17:49;;;;;;;2.40;1.70;;;;;;;27.47;49.05;100400.02;1710451;82;25551;-70
2022/08/02 07:20:15;;;;;;;2.15;1.60;;;;;;;27.75;48.74;100400.72;1718945;82;25672;-70
2022/08/02 07:22:42;;;;;;;1.87;1.77;;;;;;;28.03;47.82;100395.89;1713150;82;25677;-70
2022/08/02 07:25:09;;;;;;;5.90;2.15;;;;;;;28.31;47.58;100395.29;1713975;82;25669;-71
2022/08/02 07:27:35;;;;;;;4.28;1.57;;;;;;;28.64;47.32;100394.05;1683828;82;27718;-70
2022/08/02 07:30:05;;;;;;;5.95;1.75;;;;;;;28.94;46.54;100401.14;1726411;81;25318;-71
2022/08/02 07:32:32;;;;;;;5.95;2.20;;;;;;;29.20;45.69;100393.20;1735291;81;25575;-70
2022/08/02 07:35:00;;;;;;;4.17;1.50;;;;;;;29.49;44.75;100398.65;1703992;83;25585;-71
2022/08/02 07:37:30;;;;;;;6.35;2.90;;;;;;;29.67;43.82;100396.19;1738096;80;25737;-70
2022/08/02 07:39:56;;;;;;;2.87;2.00;;;;;;;29.94;43.97;100402.08;1731220;81;27561;-70
2022/08/02 07:42:24;;;;;;;2.62;1.57;;;;;;;30.21;43.01;100396.15;1725869;81;25787;-70
2022/08/02 07:44:51;;;;;;;2.77;1.40;;;;;;;30.40;41.52;100399.23;1731034;81;25684;-71
2022/08/02 07:47:17;;;;;;;2.87;1.87;;;;;;;30.47;41.11;100395.61;1735892;81;25814;-71
2022/08/02 07:49:44;;;;;;;2.80;1.32;;;;;;;30.57;40.82;100400.70;1736380;81;25701;-71
2022/08/02 07:52:10;;;;;;;4.12;1.80;;;;;;;30.81;41.13;100397.60;1744755;80;28300;-71
2022/08/02 07:54:36;;;;;;;4.70;1.70;;;;;;;31.12;40.92;100390.08;1722078;81;25873;-71
2022/08/02 07:57:03;;;;;;;3.45;1.80;;;;;;;31.39;40.34;100391.75;1723180;81;25684;-72
2022/08/02 07:59:29;;;;;;;4.37;1.70;;;;;;;31.62;39.92;100394.80;1727186;81;25545;-72
2022/08/02 08:01:55;;;;;;;2.40;1.60;;;;;;;31.79;38.73;100394.02;1732087;81;25617;-72
2022/08/02 08:04:22;;;;;;;2.27;1.80;;;;;;;31.96;39.11;100394.61;1748432;80;27489;-72
2022/08/02 08:06:50;;;;;;;1.85;1.42;;;;;;;32.18;37.93;100393.23;1736256;81;25693;-72
2022/08/02 08:52:42;;;;;;;4.62;2.25;;;;;;;34.65;33.88;100406.45;1794432;77;25776;-71
2022/08/02 08:55:10;;;;;;;4.08;2.10;;;;;;;34.71;34.46;100408.78;1751274;80;25710;-68
2022/08/02 08:57:41;;;;;;;5.90;2.08;;;;;;;34.71;34.46;100408.78;1745630;80;28028;-70
2022/08/02 09:00:11;;;;;;;5.00;2.25;;;;;;;34.78;33.77;100412.03;1765243;80;25626;-68
2022/08/02 09:02:41;;;;;;;2.27;1.90;;;;;;;34.73;33.68;100408.47;1768148;80;25670;-69
2022/08/02 09:05:14;;;;;;;4.60;2.05;;;;;;;34.90;33.63;100417.30;1766960;79;25649;-70
2022/08/02 09:07:43;;;;;;;2.90;2.00;;;;;;;34.95;34.54;100407.45;1705332;83;26279;-70
2022/08/02 09:10:37;;;;;;;5.60;2.05;;;;;;;35.01;33.47;100406.16;1690046;82;29158;-70
2022/08/02 09:13:28;;;;;;;3.62;2.70;;;;;;;35.10;33.90;100402.68;1688585;83;25643;-71
2022/08/02 09:15:57;;;;;;;2.55;2.00;;;;;;;35.26;33.76;100402.14;1695175;82;25737;-69
2022/08/02 09:18:40;;;;;;;2.77;1.95;;;;;;;35.44;33.77;100411.87;1705601;83;25789;-71
2022/08/02 09:21:10;;;;;;;3.80;1.92;;;;;;;35.58;33.04;100406.14;1686629;83;25602;-71
2022/08/02 09:23:47;;;;;;;3.52;2.05;;;;;;;35.70;32.90;100405.73;1688255;83;27551;-71
2022/08/02 09:26:17;;;;;;;2.87;1.90;;;;;;;35.85;32.04;100408.61;1691732;83;25782;-69
2022/08/02 09:28:48;;;;;;;3.42;2.00;;;;;;;35.99;32.27;100409.25;1693889;82;25688;-70
2022/08/02 09:31:19;;;;;;;4.12;2.42;;;;;;;36.18;31.79;100409.07;1699959;83;25753;-69
2022/08/02 09:33:58;;;;;;;1.92;1.82;;;;;;;36.26;31.56;100413.09;1706056;82;25708;-69
2022/08/02 09:36:29;;;;;;;2.35;1.82;;;;;;;36.23;30.86;100413.41;1697846;83;27542;-71
2022/08/02 09:39:00;;;;;;;4.33;2.30;;;;;;;36.13;30.72;100416.79;1688132;83;25649;-68
2022/08/02 09:41:33;;;;;;;15.58;7.12;;;;;;;35.90;29.92;100407.30;1714844;83;25677;-70
2022/08/02 09:44:03;;;;;;;2.85;1.95;;;;;;;35.60;30.85;100419.72;1716892;83;25806;-70
2022/08/02 09:46:35;;;;;;;2.33;1.87;;;;;;;35.51;30.93;100426.96;1716642;83;25731;-71
2022/08/02 09:49:11;;;;;;;4.17;2.30;;;;;;;35.44;30.68;100424.52;1716717;82;28160;-72
2022/08/02 09:51:45;;;;;;;6.95;2.40;;;;;;;35.17;30.94;100428.25;1710714;83;25606;-70
2022/08/02 09:54:19;;;;;;;4.30;2.47;;;;;;;35.06;31.00;100420.96;1706695;83;25638;-72
2022/08/02 09:56:50;;;;;;;2.33;2.12;;;;;;;34.79;30.76;100428.28;1694435;82;25572;-68
2022/08/02 09:59:20;;;;;;;2.85;2.00;;;;;;;34.49;31.08;100423.05;1749252;81;25584;-69
2022/08/02 10:01:48;;;;;;;5.25;2.25;;;;;;;34.38;31.98;100418.70;1748378;79;27466;-71
2022/08/02 10:04:21;;;;;;;2.30;2.10;;;;;;;34.58;31.88;100417.39;1751785;79;25850;-72
2022/08/02 10:06:49;;;;;;;3.75;2.25;;;;;;;34.57;31.53;100422.23;1753718;79;25720;-69
2022/08/02 10:09:16;;;;;;;3.42;2.33;;;;;;;34.56;32.52;100415.05;1748349;81;25673;-70
2022/08/02 10:11:43;;;;;;;4.25;2.10;;;;;;;34.85;32.83;100415.13;1758249;80;25533;-70
2022/08/02 10:14:10;;;;;;;4.53;2.35;;;;;;;35.06;31.73;100413.33;1762452;80;27574;-71
2022/08/02 10:16:41;;;;;;;2.12;1.95;;;;;;;35.33;32.12;100418.04;1749273;80;25637;-70
2022/08/02 10:19:09;;;;;;;2.80;2.47;;;;;;;35.57;31.39;100413.64;1771967;80;25638;-70
2022/08/02 10:21:58;;;;;;;2.37;2.17;;;;;;;35.82;31.24;100408.93;1753526;80;26302;-69
2022/08/02 10:24:28;;;;;;;2.55;2.00;;;;;;;35.92;30.72;100411.05;1757008;80;25772;-71
2022/08/02 10:26:58;;;;;;;3.30;2.22;;;;;;;36.18;31.01;100411.89;1740619;81;28013;-71
2022/08/02 10:29:37;;;;;;;2.72;2.22;;;;;;;36.45;30.76;100413.02;1761055;80;25751;-70
2022/08/02 10:32:10;;;;;;;2.87;1.95;;;;;;;36.48;30.82;100409.11;1741383;80;25423;-70
2022/08/02 10:34:46;;;;;;;5.28;2.22;;;;;;;36.64;30.72;100410.79;1768141;81;25378;-71
2022/08/02 10:37:14;;;;;;;4.87;2.30;;;;;;;36.43;29.81;100413.37;1751284;81;25587;-70
2022/08/02 10:39:43;;;;;;;2.70;2.08;;;;;;;36.01;29.47;100412.99;1755642;80;27565;-73
2022/08/02 10:42:11;;;;;;;6.72;2.40;;;;;;;35.87;30.04;100411.71;1757799;80;25628;-72
2022/08/02 10:44:38;;;;;;;2.95;1.80;;;;;;;35.83;29.70;100413.31;1752809;80;25742;-71
2022/08/02 10:47:24;;;;;;;3.85;2.80;;;;;;;35.68;29.92;100412.48;1752620;79;25619;-72
2022/08/02 10:49:55;;;;;;;4.47;2.70;;;;;;;35.70;30.31;100411.36;1752854;80;26641;-70
2022/08/02 10:52:28;;;;;;;2.90;2.40;;;;;;;35.83;30.37;100407.69;1751318;80;27431;-71
2022/08/02 10:55:10;;;;;;;4.87;2.58;;;;;;;36.12;30.43;100408.22;1754090;80;25730;-70
2022/08/02 10:57:37;;;;;;;5.53;2.77;;;;;;;36.35;29.37;100403.13;1762647;80;25692;-71
2022/08/02 11:00:23;;;;;;;3.10;2.40;;;;;;;36.45;29.10;100402.39;1754061;79;25941;-71
2022/08/02 11:02:52;;;;;;;5.62;2.55;;;;;;;36.53;29.46;100403.56;1725767;82;25750;-71
2022/08/02 11:05:29;;;;;;;3.15;2.42;;;;;;;36.72;29.85;100402.73;1706536;82;27500;-71
2022/08/02 11:07:55;;;;;;;3.45;1.90;;;;;;;36.59;28.96;100403.03;1719350;82;25698;-72
2022/08/02 11:10:29;;;;;;;6.00;2.35;;;;;;;36.11;28.83;100406.65;1688327;82;25758;-70
2022/08/02 11:13:13;;;;;;;3.50;2.47;;;;;;;35.53;28.58;100416.64;1717376;82;25766;-69
2022/08/02 11:16:03;;;;;;;4.95;2.50;;;;;;;34.86;28.90;100408.27;1727411;82;25857;-69
2022/08/02 11:18:54;;;;;;;3.10;2.40;;;;;;;34.23;29.31;100411.56;1725530;82;28086;-69
2022/08/02 11:21:30;;;;;;;2.92;2.27;;;;;;;33.72;30.70;100405.82;1719188;82;25728;-71
2022/08/02 11:24:22;;;;;;;3.98;2.70;;;;;;;33.87;31.34;100399.11;1721406;82;25711;-71
2022/08/02 11:26:49;;;;;;;5.35;2.67;;;;;;;34.35;32.10;100400.00;1725453;82;25830;-70
2022/08/02 11:29:16;;;;;;;6.17;2.80;;;;;;;34.95;31.23;100402.59;1667515;84;25875;-70
2022/08/02 11:31:45;;;;;;;4.05;2.55;;;;;;;35.30;31.03;100399.95;1665431;85;27553;-72
2022/08/02 11:34:12;;;;;;;6.78;2.72;;;;;;;35.59;30.78;100399.27;1714867;82;25774;-70
2022/08/02 11:36:50;;;;;;;2.75;1.98;;;;;;;35.98;30.26;100399.87;1680501;84;25687;-70
2022/08/02 11:39:19;;;;;;;3.42;2.52;;;;;;;35.91;29.20;100408.06;1687643;84;25728;-70
2022/08/02 11:41:58;;;;;;;8.35;3.35;;;;;;;35.52;28.98;100407.44;1712459;82;26381;-69
2022/08/02 11:44:27;;;;;;;5.65;2.87;;;;;;;35.16;28.99;100408.41;1683728;84;27511;-70
2022/08/02 11:46:58;;;;;;;3.80;2.55;;;;;;;34.69;29.32;100409.25;1718935;82;25722;-69
2022/08/02 11:49:24;;;;;;;5.80;2.98;;;;;;;34.29;29.77;100411.69;1710167;82;25703;-69
2022/08/02 11:52:09;;;;;;;4.37;2.62;;;;;;;34.00;30.60;100412.18;1713689;82;25674;-71
2022/08/02 11:54:32;;;;;;;3.55;2.77;;;;;;;33.81;31.02;100407.21;1718859;82;25695;-69
2022/08/02 11:57:20;;;;;;;3.27;2.52;;;;;;;33.83;30.96;100408.92;1698298;82;28037;-69
2022/08/02 11:59:53;;;;;;;6.53;2.83;;;;;;;34.10;31.53;100403.14;1715784;82;29873;-70
2022/08/02 12:02:26;;;;;;;3.27;2.98;;;;;;;34.51;31.14;100406.50;1705166;82;25677;-70
2022/08/02 12:05:05;;;;;;;2.75;2.55;;;;;;;34.50;30.94;100408.54;1714777;82;25811;-70
2022/08/02 12:07:36;;;;;;;3.25;2.95;;;;;;;34.26;30.81;100409.86;1709091;82;25801;-70
2022/08/02 12:10:07;;;;;;;3.15;2.65;;;;;;;34.01;30.97;100408.91;1752921;80;27575;-70
2022/08/02 12:12:48;;;;;;;7.72;3.00;;;;;;;33.82;31.55;100410.18;1758619;79;25690;-72
2022/08/02 12:15:15;;;;;;;7.67;3.87;;;;;;;33.97;31.96;100408.30;1726110;82;25703;-70
2022/08/02 12:20:37;;;;;;;4.53;3.37;;;;;;;34.71;31.64;100396.14;1727554;82;25655;-72
2022/08/02 12:23:03;;;;;;;6.83;3.10;;;;;;;34.58;31.76;100406.16;1720462;82;28400;-69
2022/08/02 12:25:30;;;;;;;6.45;3.15;;;;;;;34.43;31.88;100404.66;1722034;82;26054;-71
2022/08/02 12:28:21;;;;;;;6.15;3.52;;;;;;;34.25;31.16;100401.27;1716974;82;25731;-71
2022/08/02 12:30:57;;;;;;;5.20;3.20;;;;;;;33.99;31.26;100395.98;1724054;81;25827;-67
2022/08/02 12:33:27;;;;;;;3.62;3.08;;;;;;;33.87;32.98;100401.91;1731937;82;25532;-67
2022/08/02 12:35:54;;;;;;;3.30;3.00;;;;;;;33.80;33.38;100398.03;1719252;82;28209;-67
2022/08/02 12:38:20;;;;;;;3.40;2.87;;;;;;;33.89;33.94;100409.09;1729096;82;25623;-66